Time;durP1;ratioP1;P1;durP2;ratioP2;P2;SDS_P1;SDS_P2;PMS_P1;PMS_P2;Temp;Humidity;BMP_temperature;BMP_pressure;BME280_temperature;BME280_humidity;BME280_pressure;Samples;Min_cycle;Max_cycle;Signal;HPM_P1;HPM_P2
2021/08/15 00:01:15;;;;;;;30.52;12.45;;;;;;;20.68;57.83;100614.64;5010002;59;21205;-81
2021/08/15 00:06:20;;;;;;;12.93;9.08;;;;;;;20.63;58.25;100606.27;5010027;58;21529;-80
2021/08/15 00:11:26;;;;;;;23.47;9.88;;;;;;;20.54;58.45;100604.18;5009933;59;21520;-85
2021/08/15 00:16:32;;;;;;;12.60;8.03;;;;;;;20.42;58.63;100602.95;5009837;59;21464;-84
2021/08/15 00:21:39;;;;;;;9.63;6.72;;;;;;;20.32;58.91;100596.94;5009948;58;21177;-84
2021/08/15 00:26:45;;;;;;;8.53;5.83;;;;;;;20.29;59.19;100604.03;5009884;59;21187;-85
2021/08/15 00:31:50;;;;;;;11.18;6.30;;;;;;;20.07;59.12;100599.48;5009673;59;21094;-86
2021/08/15 00:36:56;;;;;;;8.18;6.72;;;;;;;19.73;59.59;100599.86;5005949;59;21184;-85
2021/08/15 00:42:02;;;;;;;7.92;5.83;;;;;;;19.65;60.35;100594.05;5006128;59;21170;-83
2021/08/15 00:47:08;;;;;;;10.13;6.08;;;;;;;19.58;60.84;100594.41;5005696;59;21193;-81
2021/08/15 00:52:14;;;;;;;10.08;7.05;;;;;;;19.45;60.80;100594.09;5005622;59;21500;-83
2021/08/15 00:57:22;;;;;;;40.67;12.28;;;;;;;19.38;60.95;100584.59;5005677;59;21170;-83
2021/08/15 01:02:27;;;;;;;11.00;6.33;;;;;;;19.49;61.54;100580.68;5005642;59;21568;-84
2021/08/15 01:07:33;;;;;;;15.65;7.03;;;;;;;19.54;61.30;100579.69;5005646;59;22091;-80
2021/08/15 01:12:39;;;;;;;11.53;6.70;;;;;;;19.56;61.23;100583.00;5005523;59;21603;-82
2021/08/15 01:17:46;;;;;;;18.32;6.45;;;;;;;19.56;60.88;100581.66;4993979;59;21174;-84
2021/08/15 01:22:53;;;;;;;12.13;6.65;;;;;;;19.45;60.92;100588.73;4993117;59;22145;-82
2021/08/15 01:27:59;;;;;;;10.53;6.90;;;;;;;19.27;61.27;100583.61;4992969;59;21173;-82
2021/08/15 01:33:05;;;;;;;54.48;15.63;;;;;;;19.26;61.86;100584.11;4994193;59;21173;-80
2021/08/15 01:38:11;;;;;;;36.50;11.57;;;;;;;19.38;61.99;100587.78;4997019;59;21173;-83
2021/08/15 01:43:17;;;;;;;36.80;13.83;;;;;;;19.46;61.82;100579.68;4997176;59;21262;-83
2021/08/15 01:48:23;;;;;;;29.60;12.10;;;;;;;19.48;61.78;100573.14;4997247;58;21176;-83
2021/08/15 01:53:28;;;;;;;19.12;9.28;;;;;;;19.46;61.72;100572.47;4997015;59;21172;-82
2021/08/15 01:58:34;;;;;;;15.15;7.05;;;;;;;19.36;61.42;100577.72;4997033;59;21205;-81
2021/08/15 02:03:40;;;;;;;9.35;6.85;;;;;;;19.17;61.52;100585.16;4996832;59;21173;-84
2021/08/15 02:08:48;;;;;;;10.53;7.67;;;;;;;18.93;61.76;100584.75;4996980;59;21110;-84
2021/08/15 02:13:54;;;;;;;13.25;6.40;;;;;;;18.83;62.53;100586.76;4964949;59;21739;-83
2021/08/15 02:19:00;;;;;;;11.78;7.12;;;;;;;18.63;62.40;100593.52;4995440;59;21177;-83
2021/08/15 02:24:06;;;;;;;12.25;7.97;;;;;;;18.54;62.69;100591.80;4995542;59;21472;-82
2021/08/15 02:29:12;;;;;;;16.15;9.78;;;;;;;18.55;63.20;100593.47;4995769;59;21223;-83
2021/08/15 02:34:19;;;;;;;15.35;8.45;;;;;;;18.34;62.96;100593.97;4993221;59;21177;-83
2021/08/15 02:39:24;;;;;;;15.75;8.95;;;;;;;18.08;63.61;100596.80;5004017;59;21173;-83
2021/08/15 02:44:30;;;;;;;17.80;8.80;;;;;;;17.99;64.30;100598.31;5005248;59;21177;-81
2021/08/15 02:49:40;;;;;;;17.02;8.35;;;;;;;18.08;64.91;100588.77;5005547;58;21161;-82
2021/08/15 02:54:46;;;;;;;13.78;7.10;;;;;;;18.16;64.73;100592.81;5005375;59;21166;-83
2021/08/15 02:59:52;;;;;;;14.55;6.53;;;;;;;18.17;64.85;100599.84;5005349;59;21173;-80
2021/08/15 03:04:58;;;;;;;14.17;7.33;;;;;;;18.10;64.54;100589.95;5005276;59;21520;-82
2021/08/15 03:10:06;;;;;;;12.75;7.83;;;;;;;18.11;64.78;100595.64;5005435;59;21221;-81
2021/08/15 03:15:13;;;;;;;19.67;7.58;;;;;;;18.04;64.42;100588.77;5002532;58;21556;-84
2021/08/15 03:20:19;;;;;;;14.70;7.73;;;;;;;18.05;64.97;100597.63;4991915;58;21512;-82
2021/08/15 03:25:24;;;;;;;12.33;7.90;;;;;;;18.00;65.00;100595.47;4991930;59;21223;-84
2021/08/15 03:30:30;;;;;;;12.07;7.75;;;;;;;18.08;65.46;100598.14;4993318;59;21177;-81
2021/08/15 03:35:36;;;;;;;15.97;7.43;;;;;;;18.20;65.45;100599.48;4996362;59;21169;-88
2021/08/15 03:40:42;;;;;;;10.13;7.15;;;;;;;18.06;64.58;100612.69;4983265;59;21200;-82
2021/08/15 03:45:47;;;;;;;19.63;7.67;;;;;;;17.80;64.48;100608.30;4951379;59;21180;-81
2021/08/15 03:50:53;;;;;;;12.93;7.17;;;;;;;17.63;64.78;100602.53;4965571;59;22054;-82
2021/08/15 03:56:00;;;;;;;17.07;8.47;;;;;;;17.48;65.04;100612.17;4964785;59;21217;-82
2021/08/15 04:01:05;;;;;;;15.97;7.67;;;;;;;17.51;65.76;100603.83;4914633;56;42698;-81
2021/08/15 04:06:20;;;;;;;13.17;7.83;;;;;;;17.62;66.34;100597.34;4888696;60;22052;-84
2021/08/15 04:11:20;;;;;;;16.97;7.25;;;;;;;17.82;66.54;100602.29;4889212;59;22146;-85
2021/08/15 04:16:25;;;;;;;15.80;7.45;;;;;;;17.79;65.65;100607.96;4885837;59;21175;-83
2021/08/15 04:21:31;;;;;;;16.97;7.40;;;;;;;17.56;65.40;100610.88;4888765;60;21473;-83
2021/08/15 04:26:37;;;;;;;16.50;8.17;;;;;;;17.47;65.79;100615.34;4888962;60;21163;-84
2021/08/15 04:31:44;;;;;;;13.27;6.73;;;;;;;17.45;65.90;100603.13;4888573;60;21158;-83
2021/08/15 04:36:49;;;;;;;9.20;6.97;;;;;;;17.49;66.12;100601.81;4886920;60;21207;-82
2021/08/15 04:41:56;;;;;;;14.00;6.87;;;;;;;17.57;66.54;100602.67;4888347;60;21158;-83
2021/08/15 04:47:02;;;;;;;15.57;6.53;;;;;;;17.59;66.69;100593.14;4888444;59;21151;-84
2021/08/15 04:52:08;;;;;;;20.40;13.33;;;;;;;17.59;66.95;100593.14;4888779;60;21149;-81
2021/08/15 04:57:15;;;;;;;72.20;61.30;;;;;;;17.54;67.18;100597.67;4874761;57;28087;-82
2021/08/15 05:02:20;;;;;;;53.30;21.73;;;;;;;17.53;67.59;100601.34;4883635;60;21676;-83
2021/08/15 05:07:26;;;;;;;76.80;24.93;;;;;;;17.58;68.03;100600.83;4880570;61;21184;-84
2021/08/15 05:12:32;;;;;;;40.03;12.57;;;;;;;17.66;68.56;100596.89;4880577;61;21255;-79
2021/08/15 05:17:37;;;;;;;17.60;8.10;;;;;;;17.69;68.83;100599.25;4895130;60;21197;-82
2021/08/15 05:22:43;;;;;;;13.43;7.60;;;;;;;17.69;69.51;100605.09;4914704;60;21153;-84
2021/08/15 05:27:49;;;;;;;15.10;6.27;;;;;;;17.78;69.66;100592.06;4914822;60;21236;-84
2021/08/15 05:32:55;;;;;;;19.50;7.07;;;;;;;17.94;70.01;100602.81;4914552;60;21624;-82
2021/08/15 05:38:01;;;;;;;21.60;7.07;;;;;;;18.04;70.12;100605.32;4914638;60;21205;-80
2021/08/15 05:43:07;;;;;;;12.77;6.17;;;;;;;18.14;70.29;100613.55;4914757;60;21182;-80
2021/08/15 05:48:12;;;;;;;9.93;6.80;;;;;;;18.34;70.29;100615.89;4914602;60;22160;-82
2021/08/15 05:53:18;;;;;;;12.43;6.00;;;;;;;18.48;70.23;100618.77;4914784;60;21180;-82
2021/08/15 05:58:24;;;;;;;12.40;5.67;;;;;;;18.62;70.28;100619.97;4914551;60;21804;-80
2021/08/15 06:03:29;;;;;;;10.30;5.47;;;;;;;18.82;70.31;100623.94;4914964;60;21646;-81
2021/08/15 06:08:35;;;;;;;14.68;5.83;;;;;;;19.02;69.87;100623.58;4915024;60;21235;-82
2021/08/15 06:13:41;;;;;;;9.23;5.70;;;;;;;19.18;69.63;100623.04;4914752;60;21184;-81
2021/08/15 06:18:47;;;;;;;10.13;4.42;;;;;;;19.34;69.29;100620.81;4914463;60;21184;-79
2021/08/15 06:23:52;;;;;;;10.58;5.60;;;;;;;19.60;69.06;100624.58;4914631;60;21130;-83
2021/08/15 06:28:58;;;;;;;8.45;4.53;;;;;;;19.79;68.54;100617.45;4914598;60;21220;-79
2021/08/15 06:34:04;;;;;;;11.60;3.77;;;;;;;19.99;68.00;100614.66;4914522;60;21628;-82
2021/08/15 06:39:10;;;;;;;14.98;3.58;;;;;;;20.20;65.60;100623.89;4914512;60;21195;-80
2021/08/15 06:44:17;;;;;;;10.35;3.37;;;;;;;20.31;64.41;100629.70;4914615;60;21175;-79
2021/08/15 06:49:23;;;;;;;7.37;3.65;;;;;;;20.45;63.15;100635.34;4914462;59;21213;-82
2021/08/15 06:54:29;;;;;;;12.28;4.00;;;;;;;20.61;63.64;100634.70;4914529;60;21579;-81
2021/08/15 06:59:35;;;;;;;12.80;5.35;;;;;;;20.82;61.53;100629.12;4914429;60;21113;-81
2021/08/15 07:04:40;;;;;;;8.68;4.05;;;;;;;20.93;61.38;100624.13;4914522;60;21122;-81
2021/08/15 07:09:46;;;;;;;11.40;4.10;;;;;;;20.98;60.29;100626.27;4914486;60;21228;-82
2021/08/15 07:14:51;;;;;;;12.37;4.25;;;;;;;21.09;60.70;100637.91;4914416;60;21216;-80
2021/08/15 07:19:57;;;;;;;10.20;3.70;;;;;;;21.24;59.67;100624.50;4914510;60;21212;-80
2021/08/15 07:25:05;;;;;;;9.40;3.50;;;;;;;21.41;60.40;100616.05;4914619;59;21214;-79
2021/08/15 07:30:11;;;;;;;10.85;4.25;;;;;;;21.42;58.24;100611.51;4914807;59;21207;-81
2021/08/15 07:35:17;;;;;;;10.15;4.42;;;;;;;21.36;59.53;100610.42;4853609;59;21254;-84
2021/08/15 07:40:24;;;;;;;6.05;3.60;;;;;;;21.63;59.87;100612.93;4854854;60;21173;-81
2021/08/15 07:45:33;;;;;;;10.78;4.30;;;;;;;21.94;57.14;100603.75;4910876;60;22421;-83
2021/08/15 07:50:41;;;;;;;8.43;3.80;;;;;;;21.86;57.78;100614.12;4910874;60;21796;-81
2021/08/15 07:55:51;;;;;;;8.63;4.53;;;;;;;21.83;57.28;100613.69;4914741;60;21731;-82
2021/08/15 08:00:58;;;;;;;8.18;3.27;;;;;;;21.80;58.42;100620.28;4940403;55;76635;-82
2021/08/15 08:06:07;;;;;;;8.58;3.27;;;;;;;21.75;57.64;100624.04;4985813;59;21173;-82
2021/08/15 08:11:15;;;;;;;7.03;3.17;;;;;;;21.79;58.69;100625.84;4987244;59;21165;-81
2021/08/15 08:16:21;;;;;;;7.60;3.87;;;;;;;21.94;57.73;100624.79;4987049;59;21173;-83
2021/08/15 08:21:26;;;;;;;9.43;3.75;;;;;;;22.20;57.25;100622.08;4985568;59;21233;-81
2021/08/15 08:26:33;;;;;;;10.05;3.40;;;;;;;22.33;56.53;100617.64;4984912;59;21520;-81
2021/08/15 08:31:39;;;;;;;10.78;3.17;;;;;;;22.48;55.58;100615.39;4982269;59;22148;-80
2021/08/15 08:36:45;;;;;;;10.65;3.50;;;;;;;22.60;55.74;100612.00;4906864;60;21192;-83
2021/08/15 08:41:52;;;;;;;19.15;4.15;;;;;;;22.60;55.46;100607.95;4931189;59;21212;-83
2021/08/15 08:47:05;;;;;;;9.93;3.98;;;;;;;22.63;55.65;100603.49;4983588;59;21561;-82
2021/08/15 08:52:11;;;;;;;7.78;3.92;;;;;;;22.74;55.19;100608.89;4982769;59;21161;-84
2021/08/15 08:57:17;;;;;;;10.20;3.90;;;;;;;22.84;55.58;100599.96;4983265;59;21157;-82
2021/08/15 09:02:23;;;;;;;9.53;4.17;;;;;;;22.87;54.36;100604.97;4983651;59;21545;-83
2021/08/15 09:07:35;;;;;;;5.72;2.98;;;;;;;23.07;53.95;100598.33;4984515;59;21507;-81
2021/08/15 09:12:45;;;;;;;10.63;3.50;;;;;;;23.19;52.43;100599.47;4982651;59;22133;-83
2021/08/15 09:17:52;;;;;;;6.00;3.20;;;;;;;23.21;52.52;100602.80;4983927;59;21162;-82
2021/08/15 09:22:57;;;;;;;6.53;3.33;;;;;;;23.18;50.72;100598.31;4976616;58;21162;-81
2021/08/15 09:28:03;;;;;;;8.43;3.80;;;;;;;23.19;50.59;100603.52;4917777;59;21173;-82
2021/08/15 09:33:15;;;;;;;7.83;3.42;;;;;;;23.28;50.60;100607.70;4930934;59;21239;-81
2021/08/15 09:38:22;;;;;;;6.67;3.33;;;;;;;23.34;49.86;100612.83;4981830;59;21220;-84
2021/08/15 09:43:30;;;;;;;5.50;3.12;;;;;;;23.31;50.99;100615.41;4976229;59;21157;-83
2021/08/15 09:48:45;;;;;;;8.25;3.17;;;;;;;23.27;50.92;100608.73;4973480;58;21193;-85
2021/08/15 09:53:57;;;;;;;13.32;4.03;;;;;;;23.40;51.57;100596.66;4976068;59;21820;-83
2021/08/15 09:59:18;;;;;;;9.90;3.58;;;;;;;23.47;51.06;100585.89;4976834;59;21166;-84
2021/08/15 10:04:26;;;;;;;10.43;3.83;;;;;;;23.64;50.09;100574.27;4978354;59;21631;-83
2021/08/15 10:09:32;;;;;;;7.50;3.77;;;;;;;23.77;50.14;100583.75;4978258;59;21853;-80
2021/08/15 10:14:38;;;;;;;11.10;4.35;;;;;;;23.87;50.19;100578.78;4972239;58;21168;-83
2021/08/15 10:19:55;;;;;;;8.90;3.40;;;;;;;24.00;49.95;100582.02;4978551;58;21528;-80
2021/08/15 10:25:07;;;;;;;7.35;2.70;;;;;;;24.18;48.96;100576.34;4970844;59;22152;-83
2021/08/15 10:30:34;;;;;;;5.92;3.20;;;;;;;24.23;48.61;100566.30;4966677;59;21223;-85
2021/08/15 10:35:40;;;;;;;4.45;2.90;;;;;;;24.39;48.82;100560.49;4980991;58;21173;-83
2021/08/15 10:40:49;;;;;;;11.95;3.30;;;;;;;24.51;47.90;100555.28;4966516;59;22166;-82
2021/08/15 10:46:10;;;;;;;10.90;3.52;;;;;;;24.60;49.03;100547.77;4987298;59;21122;-84
2021/08/15 10:51:45;;;;;;;9.05;3.08;;;;;;;24.73;47.86;100545.91;4979724;59;21246;-81
2021/08/15 10:57:00;;;;;;;4.65;2.47;;;;;;;24.87;47.12;100549.42;4967911;59;21166;-80
2021/08/15 11:02:15;;;;;;;2.72;2.40;;;;;;;25.01;46.82;100544.31;4970642;59;21180;-83
2021/08/15 11:07:39;;;;;;;6.28;2.85;;;;;;;25.15;46.73;100541.04;4989842;59;21185;-81
2021/08/15 11:13:19;;;;;;;8.78;3.08;;;;;;;25.12;45.22;100543.65;4965979;59;21238;-85
2021/08/15 11:18:25;;;;;;;4.70;2.52;;;;;;;25.14;45.43;100536.67;4975734;59;21174;-81
2021/08/15 11:23:31;;;;;;;9.73;3.00;;;;;;;25.18;46.10;100539.27;4964579;59;21672;-84
2021/08/15 11:28:37;;;;;;;3.80;2.27;;;;;;;25.35;45.55;100536.91;4974183;59;21230;-81
2021/08/15 11:33:43;;;;;;;5.95;2.35;;;;;;;25.56;44.50;100529.81;4987355;59;21225;-84
2021/08/15 11:38:51;;;;;;;6.37;3.10;;;;;;;25.70;43.54;100531.95;4979118;58;21200;-83
2021/08/15 11:43:59;;;;;;;4.47;2.52;;;;;;;25.72;43.62;100515.79;4975770;58;22148;-83
2021/08/15 11:49:04;;;;;;;2.50;1.42;;;;;;;25.90;44.33;100513.70;4973353;59;21173;-85
2021/08/15 11:54:10;;;;;;;6.83;2.12;;;;;;;26.05;41.63;100519.63;4973746;58;21158;-83
2021/08/15 11:59:18;;;;;;;5.15;2.33;;;;;;;26.13;42.37;100511.73;4972948;59;21205;-84
2021/08/15 12:04:25;;;;;;;2.20;1.72;;;;;;;26.32;40.21;100509.42;4972979;59;21551;-83
2021/08/15 12:09:30;;;;;;;3.20;1.85;;;;;;;26.32;41.70;100505.89;4973551;59;21213;-83
2021/08/15 12:14:41;;;;;;;4.00;2.40;;;;;;;26.39;41.26;100505.31;4972505;59;21589;-80
2021/08/15 12:19:46;;;;;;;2.52;1.60;;;;;;;26.54;40.67;100497.13;4975897;59;21122;-80
2021/08/15 12:25:04;;;;;;;2.25;1.72;;;;;;;26.68;39.63;100485.61;4972694;58;21110;-83
2021/08/15 12:30:06;;;;;;;3.70;1.50;;;;;;;26.69;37.83;100485.92;4973720;59;21114;-82
2021/08/15 12:35:12;;;;;;;3.27;1.47;;;;;;;26.71;38.43;100493.84;4967770;58;21796;-81
2021/08/15 12:40:22;;;;;;;2.72;1.60;;;;;;;26.64;37.36;100497.96;4967933;59;21219;-85
2021/08/15 12:45:40;;;;;;;2.52;1.90;;;;;;;26.60;38.17;100485.36;4961069;58;21169;-79
2021/08/15 12:50:48;;;;;;;1.92;1.50;;;;;;;26.54;38.51;100485.45;4970775;59;21137;-84
2021/08/15 12:55:53;;;;;;;3.08;1.75;;;;;;;26.40;39.48;100486.11;4967784;58;21660;-83
2021/08/15 13:01:00;;;;;;;3.17;1.70;;;;;;;26.34;39.42;100492.41;4928147;59;21563;-82
2021/08/15 13:06:08;;;;;;;10.15;2.27;;;;;;;26.48;40.00;100488.52;4979913;59;21212;-84
2021/08/15 13:11:13;;;;;;;4.30;2.22;;;;;;;26.72;39.66;100484.64;4888952;60;21186;-85
2021/08/15 13:16:19;;;;;;;2.77;2.30;;;;;;;26.95;38.47;100485.64;4975827;58;21118;-86
2021/08/15 13:21:25;;;;;;;4.75;2.30;;;;;;;27.19;38.34;100474.37;4974384;59;21130;-86
2021/08/15 13:26:31;;;;;;;2.50;2.25;;;;;;;27.28;39.07;100466.75;4974424;59;21165;-84
2021/08/15 13:31:36;;;;;;;4.25;2.50;;;;;;;27.40;39.00;100466.27;4970842;59;21211;-84
2021/08/15 13:36:44;;;;;;;4.30;2.20;;;;;;;27.45;39.20;100462.86;4889018;59;21685;-84
2021/08/15 13:41:50;;;;;;;4.55;2.83;;;;;;;27.42;38.35;100453.81;4912774;60;21246;-83
2021/08/15 13:46:55;;;;;;;3.22;2.17;;;;;;;27.35;38.48;100451.73;4888832;60;21189;-84
2021/08/15 13:52:01;;;;;;;9.48;2.10;;;;;;;27.43;39.21;100439.17;4902540;60;21224;-85
2021/08/15 13:57:09;;;;;;;4.47;2.15;;;;;;;27.57;38.68;100431.16;4893331;59;21209;-82
2021/08/15 14:02:15;;;;;;;5.83;2.90;;;;;;;27.64;37.58;100431.37;4926628;59;21193;-83
2021/08/15 14:07:21;;;;;;;5.67;3.15;;;;;;;27.72;37.85;100429.36;4966976;58;21106;-84
2021/08/15 14:12:26;;;;;;;6.17;3.17;;;;;;;27.59;38.24;100419.00;4973168;58;22052;-85
2021/08/15 14:17:32;;;;;;;6.33;3.20;;;;;;;27.62;38.21;100412.27;4973000;59;21197;-85
2021/08/15 14:22:38;;;;;;;3.07;2.50;;;;;;;27.85;38.24;100390.55;4979563;59;21216;-84
2021/08/15 14:27:45;;;;;;;3.33;2.25;;;;;;;27.99;37.70;100382.46;4972983;59;22139;-78
2021/08/15 14:32:51;;;;;;;3.80;2.55;;;;;;;27.96;37.61;100384.28;4950353;59;21233;-84
2021/08/15 14:37:57;;;;;;;5.72;2.77;;;;;;;27.88;37.54;100374.31;4973991;58;21153;-81
2021/08/15 14:43:03;;;;;;;5.95;2.75;;;;;;;27.90;38.23;100369.47;4897562;60;21598;-82
2021/08/15 14:48:13;;;;;;;5.60;3.27;;;;;;;28.09;37.49;100361.49;4888455;60;21183;-83
2021/08/15 14:53:18;;;;;;;7.30;3.05;;;;;;;28.17;36.72;100357.57;4969738;58;22177;-83
2021/08/15 14:58:24;;;;;;;2.52;2.33;;;;;;;28.24;36.20;100349.63;4970477;59;21242;-79
2021/08/15 15:03:30;;;;;;;8.03;2.77;;;;;;;28.25;36.44;100356.72;4973544;59;21122;-85
2021/08/15 15:08:35;;;;;;;4.78;3.37;;;;;;;28.27;36.54;100339.60;4931908;59;21233;-82
2021/08/15 15:13:41;;;;;;;6.62;3.45;;;;;;;28.43;37.07;100329.05;4977069;58;22102;-83
2021/08/15 15:18:46;;;;;;;8.68;3.27;;;;;;;28.49;36.14;100333.53;4969390;58;21205;-83
2021/08/15 15:23:52;;;;;;;4.78;2.90;;;;;;;28.41;36.50;100330.67;4925577;59;21181;-79
2021/08/15 15:28:58;;;;;;;7.87;2.75;;;;;;;28.28;37.08;100322.75;4829330;61;21195;-84
2021/08/15 15:34:04;;;;;;;4.70;2.60;;;;;;;28.16;36.67;100313.76;4927441;59;21204;-82
2021/08/15 15:39:09;;;;;;;6.20;2.33;;;;;;;28.20;36.57;100314.98;4929798;59;21248;-83
2021/08/15 15:44:15;;;;;;;5.35;3.45;;;;;;;28.23;36.85;100315.86;4920082;59;22162;-81
2021/08/15 15:49:21;;;;;;;6.10;3.42;;;;;;;28.33;36.36;100302.47;4898837;60;21192;-82
2021/08/15 15:54:27;;;;;;;7.10;2.65;;;;;;;28.37;36.59;100300.92;4900415;59;22203;-83
2021/08/15 15:59:33;;;;;;;5.97;2.80;;;;;;;28.41;36.81;100302.64;4902416;59;21217;-82
2021/08/15 16:04:38;;;;;;;5.15;2.70;;;;;;;28.34;36.70;100288.63;4902559;59;21126;-81
2021/08/15 16:09:44;;;;;;;31.57;4.20;;;;;;;28.16;36.98;100299.63;4902889;60;21126;-85
2021/08/15 16:14:50;;;;;;;3.65;3.00;;;;;;;28.01;37.47;100296.58;4902886;60;21184;-79
2021/08/15 16:19:56;;;;;;;4.92;3.27;;;;;;;27.87;37.38;100298.73;4911385;58;21205;-83
2021/08/15 16:25:02;;;;;;;4.25;2.30;;;;;;;27.94;37.72;100295.37;4984704;59;21216;-86
2021/08/15 16:30:09;;;;;;;3.87;2.22;;;;;;;28.08;37.03;100290.50;4983920;59;21195;-83
2021/08/15 16:35:15;;;;;;;6.62;2.95;;;;;;;28.19;36.70;100284.23;4956121;59;21161;-83
2021/08/15 16:40:21;;;;;;;3.42;2.62;;;;;;;28.19;37.05;100272.53;4984787;59;21118;-80
2021/08/15 16:45:27;;;;;;;7.37;3.50;;;;;;;28.18;36.52;100271.66;4982625;59;21198;-83
2021/08/15 16:50:37;;;;;;;4.50;2.72;;;;;;;28.22;36.63;100266.08;4984304;59;21214;-85
2021/08/15 16:55:47;;;;;;;4.10;3.05;;;;;;;28.26;36.67;100262.35;4894841;60;21188;-78
2021/08/15 17:00:53;;;;;;;6.42;3.20;;;;;;;28.27;37.14;100260.72;4984829;59;21174;-81
2021/08/15 17:05:59;;;;;;;5.00;2.90;;;;;;;28.21;36.78;100260.34;4985029;59;21170;-80
2021/08/15 17:11:05;;;;;;;15.43;3.05;;;;;;;28.13;36.80;100261.20;4984883;59;21204;-79
2021/08/15 17:16:11;;;;;;;2.77;2.40;;;;;;;27.94;36.27;100261.38;4984809;59;21197;-81
2021/08/15 17:21:17;;;;;;;5.33;2.70;;;;;;;27.76;36.50;100258.80;4981693;59;21686;-82
2021/08/15 17:26:23;;;;;;;3.52;2.65;;;;;;;27.60;37.00;100270.39;4883498;60;21702;-82
2021/08/15 17:31:29;;;;;;;9.03;3.00;;;;;;;27.50;37.51;100262.78;4972195;59;21206;-79
2021/08/15 17:36:38;;;;;;;4.22;3.72;;;;;;;27.37;37.70;100270.33;4968119;59;21242;-83
2021/08/15 17:41:44;;;;;;;3.85;2.80;;;;;;;27.29;37.94;100270.16;4968037;59;22247;-79
2021/08/15 17:46:50;;;;;;;11.25;5.28;;;;;;;27.14;38.36;100273.33;4968092;59;21230;-80
2021/08/15 17:51:55;;;;;;;61.77;29.35;;;;;;;27.07;38.81;100271.23;4968069;59;21180;-83
2021/08/15 17:57:01;;;;;;;128.57;52.60;;;;;;;26.97;39.11;100270.98;4968037;59;21181;-82
2021/08/15 18:02:07;;;;;;;26.95;12.55;;;;;;;26.91;39.35;100265.08;4969111;59;21528;-80
2021/08/15 18:07:16;;;;;;;21.82;9.80;;;;;;;26.85;39.65;100275.00;4883301;60;21126;-80
2021/08/15 18:12:22;;;;;;;23.52;11.25;;;;;;;26.91;39.92;100275.94;4883425;60;21536;-81
2021/08/15 18:17:28;;;;;;;27.70;8.90;;;;;;;26.96;39.98;100270.68;4883373;60;21177;-80
2021/08/15 18:22:34;;;;;;;62.45;10.85;;;;;;;26.94;40.00;100268.72;4976328;59;21114;-85
2021/08/15 18:27:40;;;;;;;73.47;9.43;;;;;;;26.84;41.20;100274.69;4860725;60;21180;-81
2021/08/15 18:32:46;;;;;;;25.55;6.87;;;;;;;26.67;42.03;100277.75;4981394;59;21185;-82
2021/08/15 18:37:52;;;;;;;52.23;10.38;;;;;;;26.49;42.66;100281.33;4983817;59;21205;-80
2021/08/15 18:42:58;;;;;;;69.25;19.30;;;;;;;26.35;43.32;100283.91;4981836;59;21164;-82
2021/08/15 18:48:07;;;;;;;61.75;11.28;;;;;;;26.16;43.63;100278.99;4983961;59;21177;-83
2021/08/15 18:53:13;;;;;;;32.48;7.42;;;;;;;25.96;44.06;100287.06;4983929;59;21173;-82
2021/08/15 18:58:19;;;;;;;37.75;10.20;;;;;;;25.66;44.61;100286.95;4984737;59;22140;-83
2021/08/15 19:03:26;;;;;;;55.33;9.80;;;;;;;25.48;45.05;100284.47;4984475;59;21495;-80
2021/08/15 19:08:31;;;;;;;28.20;7.53;;;;;;;25.37;45.39;100277.58;4984382;59;22171;-82
2021/08/15 19:13:38;;;;;;;21.93;5.95;;;;;;;25.29;45.51;100287.34;4984702;59;21165;-81
2021/08/15 19:18:44;;;;;;;25.40;7.25;;;;;;;25.15;46.03;100283.91;4983102;59;21227;-81
2021/08/15 19:23:50;;;;;;;37.93;12.05;;;;;;;25.05;46.76;100282.22;4983205;59;21165;-80
2021/08/15 19:28:56;;;;;;;35.20;8.95;;;;;;;24.87;46.88;100277.52;4983574;59;21161;-80
2021/08/15 19:34:01;;;;;;;27.82;11.08;;;;;;;24.64;47.24;100260.48;4981075;58;21478;-80
2021/08/15 19:39:07;;;;;;;36.58;12.40;;;;;;;24.50;47.87;100269.19;4982693;59;21686;-81
2021/08/15 19:44:13;;;;;;;47.48;14.30;;;;;;;24.49;48.19;100268.88;4983051;59;21223;-81
2021/08/15 19:49:19;;;;;;;59.65;22.98;;;;;;;24.43;48.29;100272.47;4983734;59;21227;-81
2021/08/15 19:54:24;;;;;;;38.78;14.30;;;;;;;24.33;48.43;100263.97;4984077;59;21122;-81
2021/08/15 19:59:30;;;;;;;51.37;14.03;;;;;;;24.20;48.86;100264.83;4983178;59;21502;-81
2021/08/15 20:04:36;;;;;;;50.63;14.10;;;;;;;24.10;49.38;100260.41;4982649;59;21214;-80
2021/08/15 20:09:42;;;;;;;46.90;13.95;;;;;;;23.92;49.82;100264.30;4978411;59;21217;-81
2021/08/15 20:14:47;;;;;;;20.25;8.68;;;;;;;23.84;50.50;100249.66;4931878;59;21189;-81
2021/08/15 20:19:53;;;;;;;16.10;5.92;;;;;;;23.76;50.81;100249.89;4977192;59;22095;-81
2021/08/15 20:24:59;;;;;;;10.23;5.22;;;;;;;23.69;51.05;100250.41;4972566;59;21174;-81
2021/08/15 20:30:06;;;;;;;7.53;3.70;;;;;;;23.61;51.43;100242.55;4972972;59;21200;-81
2021/08/15 20:35:12;;;;;;;10.60;4.95;;;;;;;23.38;51.48;100222.19;4941695;59;21105;-82
2021/08/15 20:40:19;;;;;;;8.83;4.37;;;;;;;23.32;52.04;100219.00;4984808;59;21222;-81
2021/08/15 20:45:24;;;;;;;5.00;3.35;;;;;;;23.30;52.32;100218.89;4984493;59;21173;-80
2021/08/15 20:50:30;;;;;;;8.30;4.60;;;;;;;23.23;52.65;100215.35;4982214;59;21650;-82
2021/08/15 20:55:38;;;;;;;14.23;4.33;;;;;;;23.17;53.00;100214.34;4984122;59;21731;-81
2021/08/15 21:00:44;;;;;;;19.32;5.58;;;;;;;23.10;53.28;100206.75;4984502;59;21165;-79
2021/08/15 21:05:50;;;;;;;15.80;5.90;;;;;;;22.98;53.57;100209.77;4984732;59;22261;-79
2021/08/15 21:10:59;;;;;;;15.35;6.17;;;;;;;22.88;53.61;100194.52;4984451;59;21230;-79
2021/08/15 21:16:05;;;;;;;12.47;5.30;;;;;;;22.82;53.88;100190.77;4972807;59;21594;-80
2021/08/15 21:21:14;;;;;;;15.05;6.28;;;;;;;22.74;53.97;100183.70;4975913;59;21176;-79
2021/08/15 21:26:21;;;;;;;16.12;6.60;;;;;;;22.72;54.19;100197.90;4924539;59;21603;-80
2021/08/15 21:31:27;;;;;;;18.30;6.62;;;;;;;22.65;54.19;100178.69;4964177;59;21169;-80
2021/08/15 21:36:33;;;;;;;13.72;6.08;;;;;;;22.60;54.31;100166.37;4888319;60;21558;-80
2021/08/15 21:41:39;;;;;;;11.55;5.30;;;;;;;22.50;54.38;100160.53;4894383;60;21177;-79
2021/08/15 21:46:45;;;;;;;12.25;6.47;;;;;;;22.45;54.61;100160.65;4894450;60;22177;-79
2021/08/15 21:51:51;;;;;;;11.22;5.83;;;;;;;22.49;54.87;100148.09;4894547;60;21205;-79
2021/08/15 21:56:57;;;;;;;11.73;5.00;;;;;;;22.46;54.98;100137.19;4894307;60;21641;-80
2021/08/15 22:02:03;;;;;;;11.10;5.37;;;;;;;22.44;55.13;100129.86;4895555;58;21165;-79
2021/08/15 22:07:10;;;;;;;9.23;5.80;;;;;;;22.41;55.40;100123.02;4894431;60;21214;-80
2021/08/15 22:12:20;;;;;;;7.80;4.90;;;;;;;22.35;55.35;100121.13;4894272;60;21536;-80
2021/08/15 22:17:26;;;;;;;11.80;5.45;;;;;;;22.28;55.41;100129.73;4894288;60;21185;-79
2021/08/15 22:22:31;;;;;;;37.55;15.98;;;;;;;22.20;55.49;100120.98;4894108;60;21563;-79
2021/08/15 22:27:37;;;;;;;76.07;16.77;;;;;;;22.11;55.75;100127.09;4894342;60;21226;-80
2021/08/15 22:32:46;;;;;;;37.45;9.30;;;;;;;21.98;56.12;100115.74;4913472;59;21166;-79
2021/08/15 22:37:52;;;;;;;49.83;18.70;;;;;;;21.98;56.49;100117.09;4971930;59;21681;-79
2021/08/15 22:42:58;;;;;;;44.15;19.40;;;;;;;21.96;56.46;100113.77;4971853;59;21604;-80
2021/08/15 22:48:04;;;;;;;33.45;14.28;;;;;;;21.80;56.62;100114.64;4971823;59;21180;-78
2021/08/15 22:53:09;;;;;;;20.37;8.15;;;;;;;21.83;57.09;100109.69;4971846;59;21273;-80
2021/08/15 22:58:17;;;;;;;17.37;8.05;;;;;;;21.85;56.97;100097.34;4971777;59;21174;-79
2021/08/15 23:03:23;;;;;;;27.85;9.20;;;;;;;21.87;57.01;100104.70;4971803;59;21198;-79
2021/08/15 23:08:29;;;;;;;50.10;21.62;;;;;;;21.83;57.18;100094.05;4971785;59;21173;-79
2021/08/15 23:13:34;;;;;;;15.10;7.75;;;;;;;21.75;57.10;100093.70;4971718;59;21262;-80
2021/08/15 23:18:40;;;;;;;10.08;5.87;;;;;;;21.75;57.41;100095.05;4971930;59;21180;-80
2021/08/15 23:23:46;;;;;;;13.53;5.83;;;;;;;21.76;57.58;100083.25;4971941;59;21181;-79
2021/08/15 23:28:54;;;;;;;24.60;8.05;;;;;;;21.70;57.37;100075.45;4981268;59;21204;-79
2021/08/15 23:33:59;;;;;;;130.50;55.43;;;;;;;21.66;57.53;100066.14;4730187;62;22218;-80